createdAt,value
2018-05-04T00:02:23.033Z,3.07
2018-05-04T00:04:50.493Z,3.00
2018-05-04T00:07:18.000Z,2.93
2018-05-04T00:09:45.461Z,3.00
2018-05-04T00:12:12.925Z,2.67
2018-05-04T00:14:41.149Z,2.43
2018-05-04T00:17:08.608Z,2.47
2018-05-04T00:19:36.133Z,2.03
2018-05-04T00:22:03.593Z,2.20
2018-05-04T00:24:31.065Z,2.13
2018-05-04T00:26:59.327Z,2.50
2018-05-04T00:29:26.797Z,2.00
2018-05-04T00:31:55.098Z,2.17
2018-05-04T00:34:22.576Z,2.10
2018-05-04T00:36:50.072Z,1.90
2018-05-04T00:39:17.537Z,2.03
2018-05-04T00:41:45.046Z,2.10
2018-05-04T00:44:12.513Z,1.87
2018-05-04T00:46:39.977Z,1.90
2018-05-04T00:49:07.441Z,1.97
2018-05-04T00:51:34.910Z,2.17
2018-05-04T00:54:15.035Z,1.93
2018-05-04T00:56:42.545Z,1.90
2018-05-04T00:59:10.009Z,2.00
2018-05-04T01:01:37.484Z,1.90
2018-05-04T01:04:04.984Z,1.97
2018-05-04T01:06:32.450Z,1.73
2018-05-04T01:08:59.911Z,1.97
2018-05-04T01:11:27.436Z,1.70
2018-05-04T01:13:54.916Z,1.93
2018-05-04T01:16:22.376Z,2.07
2018-05-04T01:18:49.841Z,1.90
2018-05-04T01:21:17.357Z,1.40
2018-05-04T01:23:44.844Z,1.57
2018-05-04T01:26:12.320Z,1.97
2018-05-04T01:28:39.781Z,1.47
2018-05-04T01:31:07.245Z,1.60
2018-05-04T01:33:34.705Z,1.87
2018-05-04T01:36:02.934Z,1.60
2018-05-04T01:38:30.448Z,1.90
2018-05-04T01:40:57.906Z,2.30
2018-05-04T01:43:25.527Z,1.87
2018-05-04T01:45:52.988Z,2.20
2018-05-04T01:48:20.480Z,1.87
2018-05-04T01:50:47.955Z,1.77
2018-05-04T01:53:15.426Z,2.27
2018-05-04T01:55:42.885Z,2.47
2018-05-04T01:58:10.409Z,2.23
2018-05-04T02:00:37.903Z,2.20
2018-05-04T02:03:05.368Z,1.60
2018-05-04T02:05:32.824Z,1.93
2018-05-04T02:08:00.351Z,2.17
2018-05-04T02:10:27.828Z,2.40
2018-05-04T02:12:55.288Z,2.00
2018-05-04T02:15:22.804Z,2.07
2018-05-04T02:17:50.272Z,2.17
2018-05-04T02:20:17.769Z,2.17
2018-05-04T02:22:45.230Z,2.50
2018-05-04T02:25:12.688Z,2.47
2018-05-04T02:27:40.148Z,2.17
2018-05-04T02:30:07.612Z,2.20
2018-05-04T02:32:35.073Z,1.93
2018-05-04T02:35:02.553Z,2.33
2018-05-04T02:37:30.033Z,2.70
2018-05-04T02:39:57.525Z,2.67
2018-05-04T02:42:24.983Z,2.13
2018-05-04T02:44:52.499Z,2.20
2018-05-04T02:47:19.956Z,2.50
2018-05-04T02:49:47.424Z,2.00
2018-05-04T02:52:14.955Z,2.53
2018-05-04T02:54:42.425Z,2.10
2018-05-04T02:57:09.890Z,2.60
2018-05-04T02:59:37.399Z,2.53
2018-05-04T03:02:04.883Z,2.50
2018-05-04T03:04:32.353Z,2.20
2018-05-04T03:06:59.853Z,2.20
2018-05-04T03:09:27.322Z,2.67
2018-05-04T03:11:54.813Z,2.10
2018-05-04T03:14:22.289Z,2.60
2018-05-04T03:16:49.772Z,2.80
2018-05-04T03:19:17.258Z,2.73
2018-05-04T03:21:44.736Z,2.73
2018-05-04T03:24:12.199Z,2.90
2018-05-04T03:26:39.725Z,2.60
2018-05-04T03:29:07.201Z,2.73
2018-05-04T03:31:34.683Z,2.57
2018-05-04T03:34:02.158Z,2.50
2018-05-04T03:36:29.616Z,2.80
2018-05-04T03:38:57.073Z,2.47
2018-05-04T03:41:25.305Z,2.60
2018-05-04T03:43:52.878Z,2.63
2018-05-04T03:46:21.131Z,2.70
2018-05-04T03:48:48.592Z,2.80
2018-05-04T03:51:16.819Z,2.77
2018-05-04T03:53:44.278Z,2.80
2018-05-04T03:56:11.768Z,3.50
2018-05-04T03:58:51.372Z,3.53
2018-05-04T04:01:30.649Z,3.73
2018-05-04T04:04:11.040Z,3.87
2018-05-04T04:06:38.513Z,3.50
2018-05-04T04:09:05.976Z,3.80
2018-05-04T04:11:33.441Z,4.00
2018-05-04T04:14:00.900Z,3.87
2018-05-04T04:16:28.368Z,3.77
2018-05-04T04:18:56.621Z,3.50
2018-05-04T04:21:24.115Z,3.50
2018-05-04T04:23:51.576Z,3.73
2018-05-04T04:26:19.081Z,4.13
2018-05-04T04:28:46.540Z,3.97
2018-05-04T04:31:14.816Z,3.87
2018-05-04T04:33:42.236Z,3.57
2018-05-04T04:36:09.693Z,3.83
2018-05-04T04:38:38.657Z,3.80
2018-05-04T04:41:06.157Z,4.50
2018-05-04T04:43:33.669Z,4.23
2018-05-04T04:46:01.140Z,4.73
2018-05-04T04:48:28.612Z,3.57
2018-05-04T04:50:56.172Z,4.33
2018-05-04T04:53:24.591Z,4.17
2018-05-04T04:55:52.081Z,3.87
2018-05-04T04:58:21.062Z,3.80
2018-05-04T05:00:49.337Z,3.93
2018-05-04T05:03:16.813Z,3.80
2018-05-04T05:05:44.278Z,4.07
2018-05-04T05:08:11.805Z,3.47
2018-05-04T05:10:39.282Z,3.40
2018-05-04T05:13:06.773Z,3.70
2018-05-04T05:15:37.372Z,3.47
2018-05-04T05:18:05.601Z,2.97
2018-05-04T05:20:33.061Z,3.20
2018-05-04T05:23:00.592Z,3.37
2018-05-04T05:25:28.062Z,3.20
2018-05-04T05:27:55.524Z,3.00
2018-05-04T05:30:23.034Z,3.13
2018-05-04T05:32:50.514Z,2.87
2018-05-04T05:35:17.993Z,3.23
2018-05-04T05:37:45.453Z,3.50
2018-05-04T05:40:12.969Z,2.80
2018-05-04T05:42:40.433Z,2.90
2018-05-04T05:45:08.662Z,3.07
2018-05-04T05:47:36.149Z,2.80
2018-05-04T05:50:03.616Z,3.30
2018-05-04T05:52:31.129Z,2.83
2018-05-04T05:54:58.584Z,2.70
2018-05-04T05:57:26.076Z,2.70
2018-05-04T05:59:53.535Z,2.73
2018-05-04T06:02:20.995Z,2.80
2018-05-04T06:04:48.554Z,2.90
2018-05-04T06:07:16.025Z,2.63
2018-05-04T06:09:43.491Z,2.93
2018-05-04T06:12:10.957Z,3.00
2018-05-04T06:14:39.180Z,3.13
2018-05-04T06:17:06.689Z,3.07
2018-05-04T06:19:34.169Z,2.93
2018-05-04T06:22:01.638Z,2.90
2018-05-04T06:24:29.148Z,2.90
2018-05-04T06:26:56.736Z,3.17
2018-05-04T06:29:24.240Z,2.93
2018-05-04T06:31:51.697Z,3.20
2018-05-04T06:34:19.197Z,2.70
2018-05-04T06:36:46.656Z,2.87
2018-05-04T06:39:14.172Z,3.00
2018-05-04T06:41:41.678Z,3.10
2018-05-04T06:44:09.160Z,2.87
2018-05-04T06:46:36.659Z,3.10
2018-05-04T06:49:04.125Z,3.10
2018-05-04T06:51:31.580Z,3.10
2018-05-04T06:53:59.058Z,3.20
2018-05-04T06:56:26.553Z,3.33
2018-05-04T06:58:54.800Z,3.53
2018-05-04T07:01:22.276Z,3.13
2018-05-04T07:03:49.766Z,3.50
2018-05-04T07:06:17.269Z,2.80
2018-05-04T07:08:44.733Z,2.83
2018-05-04T07:11:12.184Z,3.33
2018-05-04T07:13:39.717Z,3.03
2018-05-04T07:16:07.211Z,3.20
2018-05-04T07:18:35.511Z,2.97
2018-05-04T07:21:03.791Z,3.07
2018-05-04T07:23:31.288Z,3.50
2018-05-04T07:25:58.745Z,3.07
2018-05-04T07:28:26.268Z,3.00
2018-05-04T07:30:53.733Z,2.80
2018-05-04T07:33:21.236Z,2.73
2018-05-04T07:35:48.738Z,3.17
2018-05-04T07:38:16.317Z,3.30
2018-05-04T07:40:43.806Z,3.30
2018-05-04T07:43:11.353Z,3.13
2018-05-04T07:45:38.757Z,3.13
2018-05-04T07:48:06.223Z,3.20
2018-05-04T07:50:33.692Z,3.30
2018-05-04T07:53:01.222Z,3.90
2018-05-04T07:55:28.689Z,2.97
2018-05-04T07:57:56.177Z,3.17
2018-05-04T08:00:23.689Z,3.37
2018-05-04T08:02:51.189Z,3.40
2018-05-04T08:05:18.672Z,3.43
2018-05-04T08:07:46.136Z,3.40
2018-05-04T08:10:13.594Z,3.20
2018-05-04T08:12:41.825Z,3.27
2018-05-04T08:15:09.360Z,2.80
2018-05-04T08:17:36.935Z,3.47
2018-05-04T08:20:04.491Z,3.07
2018-05-04T08:22:31.993Z,2.90
2018-05-04T08:24:59.459Z,2.85
2018-05-04T08:27:27.007Z,2.83
2018-05-04T08:29:54.408Z,2.90
2018-05-04T08:32:21.871Z,2.92
2018-05-04T08:34:50.101Z,3.30
2018-05-04T08:37:17.623Z,2.75
2018-05-04T08:39:45.086Z,3.20
2018-05-04T08:42:12.593Z,3.30
2018-05-04T08:44:40.073Z,3.17
2018-05-04T08:47:07.606Z,3.28
2018-05-04T08:49:35.832Z,2.50
2018-05-04T08:52:03.344Z,3.05
2018-05-04T08:54:30.848Z,2.70
2018-05-04T08:56:58.313Z,3.30
2018-05-04T08:59:25.816Z,3.10
2018-05-04T09:01:53.302Z,3.30
2018-05-04T09:04:20.787Z,3.00
2018-05-04T09:06:48.250Z,2.75
2018-05-04T09:09:16.476Z,3.42
2018-05-04T09:11:44.049Z,2.78
2018-05-04T09:14:12.302Z,3.00
2018-05-04T09:16:39.785Z,3.05
2018-05-04T09:19:07.246Z,3.35
2018-05-04T09:21:34.764Z,3.45
2018-05-04T09:24:02.248Z,3.30
2018-05-04T09:26:29.709Z,3.20
2018-05-04T09:28:57.181Z,3.50
2018-05-04T09:31:25.405Z,3.37
2018-05-04T09:33:52.928Z,2.90
2018-05-04T09:36:20.391Z,3.08
2018-05-04T09:38:47.921Z,3.45
2018-05-04T09:41:15.380Z,3.30
2018-05-04T09:43:42.976Z,3.60
2018-05-04T09:46:10.469Z,3.00
2018-05-04T09:48:37.929Z,3.25
2018-05-04T09:51:05.397Z,3.85
2018-05-04T09:53:32.910Z,3.55
2018-05-04T09:56:00.433Z,3.40
2018-05-04T09:58:27.890Z,4.22
2018-05-04T10:00:55.349Z,3.47
2018-05-04T10:03:22.814Z,4.10
2018-05-04T10:05:50.285Z,3.85
2018-05-04T10:08:18.532Z,3.90
2018-05-04T10:10:45.989Z,4.03
2018-05-04T10:13:13.510Z,3.72
2018-05-04T10:15:40.965Z,3.92
2018-05-04T10:18:08.437Z,3.42
2018-05-04T10:20:36.689Z,4.47
2018-05-04T10:23:04.155Z,4.03
2018-05-04T10:25:31.612Z,3.72
2018-05-04T10:27:59.082Z,3.67
2018-05-04T10:30:27.317Z,3.83
2018-05-04T10:32:54.845Z,3.95
2018-05-04T10:35:22.311Z,3.40
2018-05-04T10:37:49.772Z,4.00
2018-05-04T10:40:17.999Z,3.60
2018-05-04T10:42:45.466Z,3.83
2018-05-04T10:45:14.008Z,3.80
2018-05-04T10:47:41.421Z,3.53
2018-05-04T10:50:08.880Z,3.30
2018-05-04T10:52:37.249Z,3.70
2018-05-04T10:55:05.472Z,3.03
2018-05-04T10:57:33.761Z,3.15
2018-05-04T11:00:01.185Z,3.28
2018-05-04T11:02:28.704Z,3.17
2018-05-04T11:04:56.160Z,3.08
2018-05-04T11:07:23.622Z,3.20
2018-05-04T11:09:51.857Z,3.00
2018-05-04T11:12:19.365Z,3.10
2018-05-04T11:14:46.870Z,2.58
2018-05-04T11:17:14.345Z,3.20
2018-05-04T11:19:41.852Z,3.05
2018-05-04T11:22:09.313Z,3.28
2018-05-04T11:24:36.774Z,2.90
2018-05-04T11:27:04.236Z,3.08
2018-05-04T11:29:32.480Z,2.25
2018-05-04T11:31:59.985Z,2.78
2018-05-04T11:34:27.473Z,2.40
2018-05-04T11:36:54.932Z,2.75
2018-05-04T11:39:22.437Z,2.85
2018-05-04T11:41:49.900Z,2.60
2018-05-04T11:44:17.358Z,2.65
2018-05-04T11:46:45.589Z,2.72
2018-05-04T11:49:13.049Z,3.20
2018-05-04T11:51:40.613Z,2.45
2018-05-04T11:54:08.101Z,2.62
2018-05-04T11:56:35.576Z,2.70
2018-05-04T11:59:03.045Z,3.25
2018-05-04T12:01:30.505Z,3.03
2018-05-04T12:03:58.061Z,2.40
2018-05-04T12:06:25.520Z,2.75
2018-05-04T12:08:53.090Z,2.50
2018-05-04T12:11:21.316Z,2.53
2018-05-04T12:13:49.545Z,2.60
2018-05-04T12:16:17.131Z,2.80
2018-05-04T12:18:44.541Z,3.10
2018-05-04T12:21:12.120Z,2.90
2018-05-04T12:23:39.585Z,2.53
2018-05-04T12:26:07.056Z,2.70
2018-05-04T12:28:34.573Z,2.72
2018-05-04T12:31:02.035Z,2.45
2018-05-04T12:33:29.496Z,2.80
2018-05-04T12:35:56.961Z,2.30
2018-05-04T12:38:25.231Z,2.72
2018-05-04T12:40:52.694Z,2.40
2018-05-04T12:43:20.187Z,2.30
2018-05-04T12:45:47.649Z,2.53
2018-05-04T12:48:15.117Z,2.40
2018-05-04T12:50:42.577Z,2.83
2018-05-04T12:53:10.129Z,2.90
2018-05-04T12:55:37.604Z,2.70
2018-05-04T12:58:05.091Z,2.70
2018-05-04T13:00:32.557Z,2.55
2018-05-04T13:03:00.069Z,2.35
2018-05-04T13:05:27.569Z,2.65
2018-05-04T13:07:55.038Z,2.80
2018-05-04T13:10:22.556Z,2.22
2018-05-04T13:12:50.012Z,2.58
2018-05-04T13:15:17.476Z,2.70
2018-05-04T13:17:45.744Z,2.28
2018-05-04T13:20:13.220Z,2.30
2018-05-04T13:22:40.728Z,2.60
2018-05-04T13:25:08.193Z,2.62
2018-05-04T13:27:36.526Z,2.30
2018-05-04T13:30:03.982Z,2.40
2018-05-04T13:32:31.475Z,2.40
2018-05-04T13:34:58.932Z,2.00
2018-05-04T13:37:27.166Z,2.40
2018-05-04T13:39:54.672Z,2.67
2018-05-04T13:42:22.129Z,2.47
2018-05-04T13:44:49.629Z,2.08
2018-05-04T13:47:17.133Z,2.58
2018-05-04T13:49:44.612Z,2.17
2018-05-04T13:52:12.072Z,2.12
2018-05-04T13:54:39.537Z,2.55
2018-05-04T13:57:07.804Z,2.78
2018-05-04T13:59:35.382Z,2.97
2018-05-04T14:02:02.845Z,2.58
2018-05-04T14:04:30.304Z,2.58
2018-05-04T14:06:57.774Z,3.10
2018-05-04T14:09:25.280Z,2.72
2018-05-04T14:11:52.812Z,2.60
2018-05-04T14:14:21.068Z,2.40
2018-05-04T14:16:48.588Z,2.25
2018-05-04T14:19:16.177Z,2.33
2018-05-04T14:21:43.729Z,2.47
2018-05-04T14:24:11.371Z,2.60
2018-05-04T14:26:38.905Z,2.33
2018-05-04T14:29:06.369Z,2.53
2018-05-04T14:31:33.836Z,2.57
2018-05-04T14:34:01.353Z,2.80
2018-05-04T14:36:28.821Z,2.67
2018-05-04T14:38:57.260Z,2.60
2018-05-04T14:41:25.496Z,2.77
2018-05-04T14:43:53.053Z,2.30
2018-05-04T14:46:23.255Z,2.30
2018-05-04T14:48:50.860Z,2.57
2018-05-04T14:51:18.540Z,2.20
2018-05-04T14:53:46.805Z,2.40
2018-05-04T14:56:15.028Z,2.60
2018-05-04T14:58:46.008Z,2.20
2018-05-04T15:01:13.517Z,2.20
2018-05-04T15:03:41.008Z,2.33
2018-05-04T15:06:08.474Z,2.33
2018-05-04T15:08:37.861Z,1.77
2018-05-04T15:11:07.152Z,2.23
2018-05-04T15:13:34.625Z,2.10
2018-05-04T15:16:02.136Z,2.23
2018-05-04T15:18:29.925Z,2.13
2018-05-04T15:21:01.477Z,2.20
2018-05-04T15:23:28.937Z,1.97
2018-05-04T15:25:56.402Z,1.80
2018-05-04T15:28:23.859Z,2.00
2018-05-04T15:30:51.321Z,1.90
2018-05-04T15:33:18.781Z,2.07
2018-05-04T15:35:46.289Z,2.13
2018-05-04T15:38:13.744Z,2.23
2018-05-04T15:40:41.260Z,2.10
2018-05-04T15:43:08.728Z,1.83
2018-05-04T15:45:36.236Z,1.97
2018-05-04T15:51:10.066Z,2.00
2018-05-04T15:53:38.300Z,1.73
2018-05-04T15:56:05.791Z,2.23
2018-05-04T15:58:33.358Z,2.10
2018-05-04T16:01:00.873Z,1.80
2018-05-04T16:03:28.358Z,1.70
2018-05-04T16:05:55.812Z,1.70
2018-05-04T16:08:24.038Z,1.57
2018-05-04T16:10:51.497Z,2.17
2018-05-04T16:13:19.740Z,1.77
2018-05-04T16:15:47.224Z,2.30
2018-05-04T16:18:14.680Z,2.10
2018-05-04T16:20:42.912Z,2.10
2018-05-04T16:23:10.385Z,2.10
2018-05-04T16:25:37.855Z,1.93
2018-05-04T16:28:06.100Z,2.00
2018-05-04T16:30:33.561Z,2.33
2018-05-04T16:33:01.039Z,2.00
2018-05-04T16:35:29.263Z,2.00
2018-05-04T16:37:56.797Z,2.23
2018-05-04T16:40:24.262Z,2.00
2018-05-04T16:42:51.725Z,2.13
2018-05-04T16:45:19.289Z,2.23
2018-05-04T16:47:52.429Z,2.63
2018-05-04T16:50:19.898Z,2.30
2018-05-04T16:52:47.363Z,2.20
2018-05-04T16:55:15.593Z,2.03
2018-05-04T16:57:43.062Z,2.50
2018-05-04T17:00:10.525Z,2.33
2018-05-04T17:02:38.741Z,1.93
2018-05-04T17:05:06.961Z,2.40
2018-05-04T17:07:34.476Z,2.50
2018-05-04T17:10:01.936Z,2.37
2018-05-04T17:12:29.388Z,2.23
2018-05-04T17:14:56.896Z,2.20
2018-05-04T17:17:24.372Z,2.10
2018-05-04T17:19:51.824Z,2.50
2018-05-04T17:22:19.288Z,2.50
2018-05-04T17:24:46.783Z,2.37
2018-05-04T17:27:14.261Z,2.43
2018-05-04T17:29:41.724Z,2.03
2018-05-04T17:32:09.964Z,2.40
2018-05-04T17:34:37.432Z,2.20
2018-05-04T17:37:04.892Z,2.23
2018-05-04T17:39:32.448Z,2.63
2018-05-04T17:41:59.960Z,2.40
2018-05-04T17:44:27.411Z,2.40
2018-05-04T17:46:54.871Z,2.80
2018-05-04T17:49:23.097Z,2.60
2018-05-04T17:51:50.623Z,2.40
2018-05-04T17:54:18.118Z,2.40
2018-05-04T17:56:45.597Z,2.63
2018-05-04T17:59:13.078Z,2.80
2018-05-04T18:01:40.570Z,2.83
2018-05-04T18:04:08.069Z,2.67
2018-05-04T18:06:35.615Z,2.63
2018-05-04T18:09:03.095Z,2.30
2018-05-04T18:11:31.354Z,2.80
2018-05-04T18:13:58.825Z,2.87
2018-05-04T18:16:26.309Z,2.63
2018-05-04T18:18:55.223Z,2.50
2018-05-04T18:21:22.808Z,3.00
2018-05-04T18:23:50.294Z,2.80
2018-05-04T18:26:17.763Z,2.70
2018-05-04T18:28:45.221Z,3.10
2018-05-04T18:31:12.734Z,2.57
2018-05-04T18:33:40.222Z,3.00
2018-05-04T18:36:07.681Z,2.30
2018-05-04T18:38:35.181Z,3.00
2018-05-04T18:41:02.641Z,2.97
2018-05-04T18:43:30.166Z,2.80
2018-05-04T18:45:57.620Z,2.80
2018-05-04T18:48:25.125Z,2.87
2018-05-04T18:50:52.551Z,2.67
2018-05-04T18:53:20.810Z,2.97
2018-05-04T18:55:48.298Z,2.90
2018-05-04T18:58:15.765Z,2.90
2018-05-04T19:00:43.242Z,2.80
2018-05-04T19:03:17.108Z,3.20
2018-05-04T19:05:44.691Z,2.77
2018-05-04T19:08:12.187Z,3.00
2018-05-04T19:10:39.650Z,2.97
2018-05-04T19:13:07.880Z,3.10
2018-05-04T19:15:35.399Z,3.00
2018-05-04T19:18:02.873Z,2.70
2018-05-04T19:20:30.371Z,3.27
2018-05-04T19:22:57.935Z,2.90
2018-05-04T19:25:25.384Z,2.90
2018-05-04T19:27:53.612Z,3.53
2018-05-04T19:30:21.831Z,3.70
2018-05-04T19:32:49.325Z,3.40
2018-05-04T19:35:16.813Z,2.97
2018-05-04T19:37:44.289Z,2.97
2018-05-04T19:40:11.826Z,2.90
2018-05-04T19:42:39.227Z,3.33
2018-05-04T19:45:06.681Z,2.57
2018-05-04T19:47:34.943Z,2.57
2018-05-04T19:50:02.403Z,2.90
2018-05-04T19:52:29.960Z,2.77
2018-05-04T19:54:57.435Z,3.17
2018-05-04T19:57:25.658Z,2.83
2018-05-04T19:59:53.141Z,2.80
2018-05-04T20:02:21.371Z,2.80
2018-05-04T20:04:48.834Z,2.60
2018-05-04T20:07:17.105Z,2.60
2018-05-04T20:09:44.681Z,2.60
2018-05-04T20:12:12.135Z,2.57
2018-05-04T20:14:39.810Z,2.43
2018-05-04T20:17:08.029Z,2.70
2018-05-04T20:19:35.484Z,2.60
2018-05-04T20:22:02.966Z,2.70
2018-05-04T20:24:30.512Z,2.47
2018-05-04T20:26:58.148Z,2.67
2018-05-04T20:29:26.398Z,2.30
2018-05-04T20:31:53.856Z,2.80
2018-05-04T20:34:22.081Z,2.80
2018-05-04T20:36:49.609Z,2.80
2018-05-04T20:39:17.061Z,2.33
2018-05-04T20:41:45.297Z,2.90
2018-05-04T20:44:12.844Z,2.47
2018-05-04T20:46:40.297Z,2.63
2018-05-04T20:49:07.765Z,2.47
2018-05-04T20:51:35.993Z,2.73
2018-05-04T20:54:04.221Z,2.70
2018-05-04T20:56:32.444Z,2.77
2018-05-04T20:59:00.696Z,2.37
2018-05-04T21:01:28.917Z,2.70
2018-05-04T21:03:56.439Z,2.50
2018-05-04T21:06:23.990Z,2.80
2018-05-04T21:08:51.412Z,2.57
2018-05-04T21:11:18.870Z,2.97
2018-05-04T21:13:46.353Z,2.40
2018-05-04T21:16:13.916Z,2.60
2018-05-04T21:18:42.144Z,3.10
2018-05-04T21:21:10.369Z,2.77
2018-05-04T21:23:37.832Z,2.90
2018-05-04T21:26:05.288Z,2.63
2018-05-04T21:28:32.744Z,2.53
2018-05-04T21:31:00.205Z,2.57
2018-05-04T21:33:28.432Z,2.37
2018-05-04T21:35:55.900Z,3.10
2018-05-04T21:38:23.360Z,2.90
2018-05-04T21:40:51.584Z,2.80
2018-05-04T21:43:19.092Z,2.70
2018-05-04T21:45:46.548Z,2.83
2018-05-04T21:48:14.013Z,2.87
2018-05-04T21:50:41.470Z,2.73
2018-05-04T21:53:08.957Z,3.03
2018-05-04T21:55:36.444Z,2.70
2018-05-04T21:58:03.898Z,2.73
2018-05-04T22:00:31.354Z,2.97
2018-05-04T22:02:58.900Z,2.80
2018-05-04T22:05:26.380Z,2.90
2018-05-04T22:07:53.849Z,2.90
2018-05-04T22:10:21.318Z,3.10
2018-05-04T22:12:48.781Z,2.93
2018-05-04T22:15:16.242Z,3.20
2018-05-04T22:17:43.697Z,2.77
2018-05-04T22:20:11.199Z,3.03
2018-05-04T22:22:38.700Z,2.90
2018-05-04T22:25:06.204Z,3.10
2018-05-04T22:27:33.658Z,3.30
2018-05-04T22:30:01.117Z,3.10
2018-05-04T22:32:28.621Z,3.27
2018-05-04T22:34:56.101Z,3.30
2018-05-04T22:37:23.587Z,3.00
2018-05-04T22:39:51.073Z,3.00
2018-05-04T22:42:18.529Z,3.03
2018-05-04T22:44:46.014Z,2.80
2018-05-04T22:47:13.472Z,2.70
2018-05-04T22:49:40.930Z,3.33
2018-05-04T22:52:08.390Z,3.40
2018-05-04T22:54:36.637Z,2.90
2018-05-04T22:57:04.116Z,2.97
2018-05-04T22:59:31.592Z,2.50
2018-05-04T23:01:59.084Z,2.93
2018-05-04T23:04:26.548Z,3.00
2018-05-04T23:06:54.011Z,2.93
2018-05-04T23:09:21.470Z,3.23
2018-05-04T23:11:49.017Z,2.83
2018-05-04T23:14:16.556Z,3.17
2018-05-04T23:16:44.809Z,3.03
2018-05-04T23:19:12.270Z,2.63
2018-05-04T23:21:39.772Z,3.10
2018-05-04T23:24:07.228Z,3.20
2018-05-04T23:26:35.552Z,2.90
2018-05-04T23:29:03.039Z,3.13
2018-05-04T23:31:30.497Z,3.17
2018-05-04T23:33:57.959Z,3.13
2018-05-04T23:36:25.424Z,2.80
2018-05-04T23:38:53.677Z,3.03
2018-05-04T23:41:21.152Z,3.43
2018-05-04T23:43:48.617Z,3.20
2018-05-04T23:46:16.076Z,3.47
2018-05-04T23:48:43.624Z,3.40
2018-05-04T23:51:11.084Z,3.10
2018-05-04T23:53:38.605Z,2.90
2018-05-04T23:56:06.193Z,2.97
2018-05-04T23:58:33.649Z,3.17
